Terminal Aerodrome Forecast
Issued by NWS Nashville, TN

Current Version | Previous Version | Text Only | Print | Product List | Glossary On
Versions: 1 2 3 4 5 6 7 8 9 10 11 12 13 14 15
000
FTUS44 KOHX 010500
TAFCSV
TAF
KCSV 010520Z 0106/0206 00000KT 5SM BR SCT200
     FM010800 00000KT 2SM BR SKC
     FM011300 04005KT P6SM SCT030
     FM020300 VRB03KT P6SM SKC=

USA.gov is the U.S. government's official web portal to all federal, state and local government web resources and services.